createdAt,value
2019-03-24T00:00:31.468Z,17.30
2019-03-24T00:03:00.315Z,13.37
2019-03-24T00:05:29.081Z,20.57
2019-03-24T00:07:57.932Z,14.40
2019-03-24T00:10:26.700Z,16.60
2019-03-24T00:12:55.525Z,15.03
2019-03-24T00:15:26.566Z,15.10
2019-03-24T00:17:54.868Z,18.97
2019-03-24T00:20:23.611Z,12.07
2019-03-24T00:22:52.499Z,20.47
2019-03-24T00:25:21.353Z,19.13
2019-03-24T00:27:50.171Z,18.73
2019-03-24T00:30:19.059Z,13.90
2019-03-24T00:32:47.876Z,14.30
2019-03-24T00:35:16.692Z,10.67
2019-03-24T00:37:45.570Z,15.30
2019-03-24T00:40:14.644Z,10.97
2019-03-24T00:42:43.771Z,11.10
2019-03-24T00:45:12.795Z,17.63
2019-03-24T00:47:41.553Z,14.03
2019-03-24T00:50:10.523Z,22.50
2019-03-24T00:52:39.327Z,17.10
2019-03-24T00:55:08.552Z,20.80
2019-03-24T00:57:37.755Z,18.97
2019-03-24T01:00:09.063Z,18.03
2019-03-24T01:02:38.796Z,20.60
2019-03-24T01:05:08.131Z,22.17
2019-03-24T01:07:37.013Z,25.00
2019-03-24T01:10:07.787Z,21.13
2019-03-24T01:12:36.558Z,18.13
2019-03-24T01:15:07.126Z,19.17
2019-03-24T01:17:36.561Z,25.33
2019-03-24T01:20:07.492Z,24.87
2019-03-24T01:22:36.595Z,24.50
2019-03-24T01:25:05.926Z,26.20
2019-03-24T01:27:34.858Z,31.07
2019-03-24T01:30:05.596Z,17.90
2019-03-24T01:32:34.406Z,25.30
2019-03-24T01:35:03.428Z,24.80
2019-03-24T01:37:32.218Z,20.83
2019-03-24T01:40:00.971Z,25.40
2019-03-24T01:42:29.741Z,20.30
2019-03-24T01:44:58.603Z,18.67
2019-03-24T01:47:27.410Z,20.53
2019-03-24T01:49:56.235Z,20.93
2019-03-24T01:52:25.115Z,18.40
2019-03-24T01:54:53.859Z,20.37
2019-03-24T01:57:22.675Z,22.53
2019-03-24T01:59:51.470Z,21.53
2019-03-24T02:02:20.237Z,20.83
2019-03-24T02:04:49.202Z,19.43
2019-03-24T02:07:18.035Z,23.43
2019-03-24T02:09:46.780Z,25.93
2019-03-24T02:12:15.511Z,19.87
2019-03-24T02:14:44.388Z,24.03
2019-03-24T02:17:13.200Z,23.93
2019-03-24T02:19:42.009Z,18.33
2019-03-24T02:22:10.886Z,24.57
2019-03-24T02:24:39.673Z,21.27
2019-03-24T02:27:08.483Z,16.50
2019-03-24T02:29:37.292Z,19.30
2019-03-24T02:32:06.127Z,25.27
2019-03-24T02:34:34.882Z,19.93
2019-03-24T02:37:03.766Z,18.73
2019-03-24T02:39:32.540Z,18.57
2019-03-24T02:42:01.301Z,18.40
2019-03-24T02:44:30.090Z,22.47
2019-03-24T02:46:58.924Z,14.67
2019-03-24T02:49:27.716Z,25.83
2019-03-24T02:51:56.574Z,14.03
2019-03-24T02:54:25.325Z,12.77
2019-03-24T02:56:54.067Z,14.33
2019-03-24T02:59:22.981Z,15.30
2019-03-24T03:01:51.756Z,16.83
2019-03-24T03:04:20.562Z,12.63
2019-03-24T03:06:50.112Z,18.23
2019-03-24T03:09:18.944Z,23.70
2019-03-24T03:11:47.707Z,17.10
2019-03-24T03:14:16.512Z,14.83
2019-03-24T03:16:45.281Z,14.53
2019-03-24T03:19:14.077Z,18.37
2019-03-24T03:21:42.892Z,21.03
2019-03-24T03:24:11.652Z,12.63
2019-03-24T03:26:40.401Z,12.27
2019-03-24T03:29:09.225Z,11.33
2019-03-24T03:31:38.042Z,18.90
2019-03-24T03:34:06.848Z,16.87
2019-03-24T03:36:35.707Z,16.63
2019-03-24T03:39:06.408Z,15.50
2019-03-24T03:41:35.320Z,13.27
2019-03-24T03:44:04.258Z,13.47
2019-03-24T03:46:33.104Z,11.33
2019-03-24T03:49:01.836Z,15.53
2019-03-24T03:51:30.623Z,15.27
2019-03-24T03:53:59.539Z,12.93
2019-03-24T03:56:28.318Z,13.40
2019-03-24T03:58:57.099Z,12.77
2019-03-24T04:01:25.932Z,9.20
2019-03-24T04:03:54.670Z,15.23
2019-03-24T04:06:23.523Z,14.07
2019-03-24T04:08:53.030Z,17.37
2019-03-24T04:11:21.820Z,13.17
2019-03-24T04:13:50.692Z,11.37
2019-03-24T04:16:20.733Z,9.93
2019-03-24T04:18:50.092Z,12.40
2019-03-24T04:21:19.028Z,16.53
2019-03-24T04:23:47.793Z,16.80
2019-03-24T04:26:16.507Z,16.23
2019-03-24T04:28:45.396Z,13.20
2019-03-24T04:31:14.139Z,12.93
2019-03-24T04:33:42.945Z,14.80
2019-03-24T04:36:11.796Z,14.27
2019-03-24T04:38:40.581Z,16.43
2019-03-24T04:41:09.364Z,8.97
2019-03-24T04:43:38.105Z,24.23
2019-03-24T04:46:06.915Z,12.23
2019-03-24T04:48:36.267Z,14.97
2019-03-24T04:51:05.237Z,11.90
2019-03-24T04:53:34.015Z,8.47
2019-03-24T04:56:02.740Z,10.23
2019-03-24T04:58:31.603Z,13.97
2019-03-24T05:01:00.333Z,14.27
2019-03-24T05:03:29.146Z,29.47
2019-03-24T05:05:59.660Z,10.37
2019-03-24T05:08:28.780Z,9.53
2019-03-24T05:10:58.332Z,9.47
2019-03-24T05:13:27.202Z,10.80
2019-03-24T05:15:56.045Z,11.23
2019-03-24T05:18:24.862Z,16.37
2019-03-24T05:20:53.723Z,13.30
2019-03-24T05:23:22.546Z,13.63
2019-03-24T05:25:51.363Z,19.07
2019-03-24T05:28:20.211Z,15.47
2019-03-24T05:30:49.027Z,10.43
2019-03-24T05:33:17.827Z,10.33
2019-03-24T05:35:46.732Z,8.53
2019-03-24T05:38:15.478Z,10.10
2019-03-24T05:40:44.300Z,9.97
2019-03-24T05:43:13.219Z,10.10
2019-03-24T05:45:42.003Z,12.00
2019-03-24T05:48:10.734Z,14.27
2019-03-24T05:50:39.595Z,13.83
2019-03-24T05:53:08.356Z,15.23
2019-03-24T05:55:37.180Z,13.20
2019-03-24T05:58:05.987Z,10.73
2019-03-24T06:00:34.803Z,23.23
2019-03-24T06:03:03.638Z,6.17
2019-03-24T06:05:32.490Z,9.83
2019-03-24T06:08:01.308Z,12.43
2019-03-24T06:10:30.128Z,14.27
2019-03-24T06:12:58.932Z,8.03
2019-03-24T06:15:27.755Z,15.43
2019-03-24T06:17:56.509Z,7.00
2019-03-24T06:20:25.292Z,19.70
2019-03-24T06:22:54.115Z,14.20
2019-03-24T06:25:22.939Z,12.07
2019-03-24T06:27:51.820Z,15.40
2019-03-24T06:30:20.588Z,12.07
2019-03-24T06:32:49.348Z,18.50
2019-03-24T06:35:18.182Z,17.47
2019-03-24T06:37:46.988Z,17.87
2019-03-24T06:40:15.748Z,10.83
2019-03-24T06:42:44.644Z,17.87
2019-03-24T06:45:13.483Z,15.90
2019-03-24T06:47:42.302Z,16.33
2019-03-24T06:50:11.380Z,7.93
2019-03-24T06:52:40.220Z,13.60
2019-03-24T06:55:09.365Z,16.37
2019-03-24T06:57:38.180Z,15.00
2019-03-24T07:00:09.131Z,13.67
2019-03-24T07:02:37.883Z,16.43
2019-03-24T07:05:07.023Z,6.87
2019-03-24T07:07:35.732Z,12.93
2019-03-24T07:10:08.906Z,12.30
2019-03-24T07:12:37.834Z,20.40
2019-03-24T07:15:10.327Z,10.90
2019-03-24T07:17:39.175Z,9.93
2019-03-24T07:20:08.693Z,13.60
2019-03-24T07:22:38.643Z,9.87
2019-03-24T07:25:07.460Z,14.23
2019-03-24T07:27:36.363Z,7.30
2019-03-24T07:30:09.326Z,11.47
2019-03-24T07:32:38.075Z,18.73
2019-03-24T07:35:07.685Z,14.63
2019-03-24T07:37:36.541Z,16.20
2019-03-24T07:40:08.485Z,14.93
2019-03-24T07:42:37.403Z,15.03
2019-03-24T07:45:08.220Z,17.83
2019-03-24T07:47:36.978Z,11.80
2019-03-24T07:50:08.196Z,8.23
2019-03-24T07:52:37.046Z,16.23
2019-03-24T07:55:07.506Z,27.90
2019-03-24T07:57:36.315Z,13.33
2019-03-24T08:00:07.485Z,11.20
2019-03-24T08:02:36.308Z,12.27
2019-03-24T08:05:05.991Z,11.90
2019-03-24T08:07:34.770Z,12.10
2019-03-24T08:10:05.700Z,20.07
2019-03-24T08:12:34.573Z,10.00
2019-03-24T08:15:04.078Z,10.80
2019-03-24T08:17:32.892Z,19.90
2019-03-24T08:20:01.692Z,11.27
2019-03-24T08:22:30.539Z,15.20
2019-03-24T08:24:59.300Z,18.30
2019-03-24T08:27:28.194Z,10.57
2019-03-24T08:29:57.019Z,15.57
2019-03-24T08:32:25.845Z,15.90
2019-03-24T08:34:54.652Z,10.53
2019-03-24T08:37:23.500Z,13.27
2019-03-24T08:39:52.347Z,12.13
2019-03-24T08:42:21.212Z,9.10
2019-03-24T08:44:50.036Z,12.53
2019-03-24T08:47:18.829Z,11.97
2019-03-24T08:49:47.630Z,13.73
2019-03-24T08:52:16.454Z,19.93
2019-03-24T08:54:45.228Z,14.80
2019-03-24T08:57:14.026Z,16.50
2019-03-24T08:59:42.875Z,12.90
2019-03-24T09:02:11.638Z,13.93
2019-03-24T09:04:40.549Z,10.73
2019-03-24T09:07:09.420Z,13.23
2019-03-24T09:09:38.219Z,8.80
2019-03-24T09:12:07.132Z,20.50
2019-03-24T09:14:35.949Z,11.30
2019-03-24T09:17:04.741Z,14.43
2019-03-24T09:19:34.403Z,11.87
2019-03-24T09:22:03.196Z,14.67
2019-03-24T09:24:31.974Z,7.73
2019-03-24T09:27:00.892Z,14.97
2019-03-24T09:29:29.627Z,10.23
2019-03-24T09:31:58.496Z,10.50
2019-03-24T09:34:27.325Z,12.90
2019-03-24T09:36:56.143Z,11.83
2019-03-24T09:39:24.908Z,15.37
2019-03-24T09:41:53.796Z,10.87
2019-03-24T09:44:22.637Z,13.17
2019-03-24T09:46:51.389Z,8.37
2019-03-24T09:49:20.285Z,7.83
2019-03-24T09:51:49.157Z,10.20
2019-03-24T09:54:17.973Z,20.37
2019-03-24T09:56:46.840Z,9.60
2019-03-24T09:59:15.708Z,11.40
2019-03-24T10:01:44.538Z,8.30
2019-03-24T10:04:13.419Z,8.90
2019-03-24T10:06:42.276Z,5.50
2019-03-24T10:09:11.120Z,11.73
2019-03-24T10:11:40.003Z,7.70
2019-03-24T10:14:08.772Z,19.10
2019-03-24T10:16:37.598Z,13.13
2019-03-24T10:19:13.905Z,13.60
2019-03-24T10:21:37.140Z,7.83
2019-03-24T10:24:07.899Z,8.17
2019-03-24T10:26:36.515Z,8.83
2019-03-24T10:29:05.341Z,12.07
2019-03-24T10:31:34.195Z,14.07
2019-03-24T10:34:03.076Z,10.47
2019-03-24T10:36:31.853Z,9.80
2019-03-24T10:39:00.628Z,7.67
2019-03-24T10:41:29.835Z,10.87
2019-03-24T10:43:58.669Z,7.30
2019-03-24T10:46:27.555Z,15.37
2019-03-24T10:48:56.420Z,7.33
2019-03-24T10:51:25.258Z,8.73
2019-03-24T10:53:54.061Z,14.40
2019-03-24T10:56:22.995Z,11.10
2019-03-24T10:58:52.756Z,6.13
2019-03-24T11:01:21.594Z,9.90
2019-03-24T11:03:50.501Z,6.67
2019-03-24T11:06:19.357Z,7.13
2019-03-24T11:08:48.221Z,9.67
2019-03-24T11:11:17.121Z,8.77
2019-03-24T11:13:45.962Z,10.30
2019-03-24T11:16:14.760Z,12.47
2019-03-24T11:18:43.620Z,3.30
2019-03-24T11:21:12.437Z,6.30
2019-03-24T11:23:41.667Z,12.87
2019-03-24T11:26:10.516Z,10.33
2019-03-24T11:28:39.324Z,9.70
2019-03-24T11:31:08.173Z,14.27
2019-03-24T11:33:37.066Z,7.07
2019-03-24T11:36:06.005Z,7.57
2019-03-24T11:38:34.767Z,8.47
2019-03-24T11:41:03.580Z,8.67
2019-03-24T11:43:32.395Z,5.80
2019-03-24T11:46:01.247Z,6.87
2019-03-24T11:48:30.125Z,9.80
2019-03-24T11:50:58.964Z,9.07
2019-03-24T11:53:27.802Z,10.90
2019-03-24T11:55:56.698Z,8.10
2019-03-24T11:58:25.557Z,10.00
2019-03-24T12:00:54.396Z,7.80
2019-03-24T12:03:25.320Z,9.40
2019-03-24T12:05:53.724Z,6.03
2019-03-24T12:08:22.500Z,13.67
2019-03-24T12:10:51.532Z,9.17
2019-03-24T12:13:20.316Z,10.73
2019-03-24T12:15:49.188Z,5.07
2019-03-24T12:18:18.045Z,6.00
2019-03-24T12:20:46.840Z,7.37
2019-03-24T12:23:15.702Z,7.83
2019-03-24T12:25:44.933Z,12.03
2019-03-24T12:28:13.781Z,8.10
2019-03-24T12:30:42.643Z,10.87
2019-03-24T12:33:11.558Z,5.90
2019-03-24T12:35:40.431Z,7.33
2019-03-24T12:38:09.363Z,3.27
2019-03-24T12:40:38.227Z,6.70
2019-03-24T12:43:06.974Z,7.40
2019-03-24T12:45:35.830Z,11.33
2019-03-24T12:48:04.748Z,4.17
2019-03-24T12:50:33.587Z,5.23
2019-03-24T12:53:02.437Z,5.43
2019-03-24T12:55:31.293Z,7.80
2019-03-24T12:58:00.117Z,9.97
2019-03-24T13:00:32.042Z,4.83
2019-03-24T13:03:00.942Z,10.33
2019-03-24T13:05:31.915Z,7.23
2019-03-24T13:08:12.605Z,6.17
2019-03-24T13:10:42.323Z,6.80
2019-03-24T13:13:11.957Z,4.40
2019-03-24T13:15:41.237Z,4.73
2019-03-24T13:18:10.091Z,3.17
2019-03-24T13:20:39.011Z,4.43
2019-03-24T13:23:07.892Z,5.63
2019-03-24T13:25:36.786Z,2.27
2019-03-24T13:28:07.824Z,6.40
2019-03-24T13:30:36.648Z,7.57
2019-03-24T13:33:05.460Z,5.50
2019-03-24T13:35:34.206Z,8.90
2019-03-24T13:38:03.032Z,10.27
2019-03-24T13:40:32.050Z,6.57
2019-03-24T13:43:00.829Z,6.10
2019-03-24T13:45:30.004Z,9.40
2019-03-24T13:47:58.772Z,6.37
2019-03-24T13:50:31.669Z,5.27
2019-03-24T13:52:58.394Z,3.33
2019-03-24T13:55:27.284Z,5.23
2019-03-24T13:57:56.115Z,6.03
2019-03-24T14:00:25.030Z,5.80
2019-03-24T14:02:53.876Z,3.07
2019-03-24T14:05:22.660Z,6.27
2019-03-24T14:07:51.575Z,5.33
2019-03-24T14:10:20.420Z,3.27
2019-03-24T14:12:49.323Z,4.50
2019-03-24T14:15:18.244Z,6.90
2019-03-24T14:17:47.076Z,6.80
2019-03-24T14:20:15.997Z,7.70
2019-03-24T14:22:44.879Z,5.70
2019-03-24T14:25:14.070Z,6.93
2019-03-24T14:27:42.885Z,6.07
2019-03-24T14:30:12.413Z,7.40
2019-03-24T14:32:41.259Z,6.60
2019-03-24T14:35:10.069Z,3.93
2019-03-24T14:37:38.963Z,4.30
2019-03-24T14:40:08.796Z,3.20
2019-03-24T14:42:37.651Z,6.10
2019-03-24T14:45:09.741Z,4.23
2019-03-24T14:47:38.491Z,6.77
2019-03-24T14:50:09.061Z,6.80
2019-03-24T14:52:37.867Z,3.27
2019-03-24T14:55:06.837Z,10.90
2019-03-24T14:57:35.628Z,5.87
2019-03-24T15:00:06.116Z,5.50
2019-03-24T15:02:34.931Z,4.97
2019-03-24T15:05:05.059Z,7.53
2019-03-24T15:07:33.934Z,8.40
2019-03-24T15:10:02.877Z,3.90
2019-03-24T15:12:31.698Z,3.13
2019-03-24T15:15:00.591Z,7.23
2019-03-24T15:17:29.372Z,5.47
2019-03-24T15:19:58.243Z,2.93
2019-03-24T15:22:27.178Z,5.97
2019-03-24T15:24:55.883Z,5.47
2019-03-24T15:27:24.661Z,2.70
2019-03-24T15:29:53.548Z,6.73
2019-03-24T15:32:22.507Z,4.67
2019-03-24T15:34:51.348Z,6.17
2019-03-24T15:37:20.260Z,7.40
2019-03-24T15:39:49.012Z,3.07
2019-03-24T15:42:17.883Z,9.50
2019-03-24T15:44:46.793Z,8.90
2019-03-24T15:47:15.555Z,7.37
2019-03-24T15:49:44.372Z,4.30
2019-03-24T15:52:13.466Z,7.43
2019-03-24T15:54:42.284Z,3.97
2019-03-24T15:57:11.130Z,6.20
2019-03-24T15:59:41.508Z,17.43
2019-03-24T16:02:10.315Z,9.50
2019-03-24T16:04:39.077Z,4.93
2019-03-24T16:07:07.942Z,6.13
2019-03-24T16:09:36.758Z,8.63
2019-03-24T16:12:05.571Z,17.00
2019-03-24T16:14:34.438Z,8.33
2019-03-24T16:17:03.204Z,5.00
2019-03-24T16:19:31.971Z,3.53
2019-03-24T16:22:00.777Z,7.30
2019-03-24T16:24:29.605Z,5.33
2019-03-24T16:26:58.428Z,8.40
2019-03-24T16:29:27.261Z,9.20
2019-03-24T16:31:56.099Z,7.53
2019-03-24T16:34:24.988Z,8.37
2019-03-24T16:36:53.876Z,5.90
2019-03-24T16:39:22.747Z,9.03
2019-03-24T16:41:51.572Z,9.77
2019-03-24T16:44:20.468Z,12.27
2019-03-24T16:46:49.316Z,5.27
2019-03-24T16:49:18.114Z,4.67
2019-03-24T16:51:46.909Z,13.87
2019-03-24T16:54:15.924Z,11.20
2019-03-24T16:56:44.735Z,8.33
2019-03-24T16:59:13.636Z,4.50
2019-03-24T17:01:42.526Z,9.17
2019-03-24T17:04:11.412Z,6.17
2019-03-24T17:06:40.300Z,6.50
2019-03-24T17:09:09.114Z,6.60
2019-03-24T17:11:37.996Z,5.03
2019-03-24T17:14:06.956Z,7.13
2019-03-24T17:16:35.869Z,4.83
2019-03-24T17:19:04.675Z,5.00
2019-03-24T17:21:33.725Z,5.43
2019-03-24T17:24:02.600Z,6.13
2019-03-24T17:26:31.464Z,4.77
2019-03-24T17:29:00.341Z,4.50
2019-03-24T17:31:29.118Z,4.93
2019-03-24T17:33:57.996Z,6.27
2019-03-24T17:36:27.643Z,7.87
2019-03-24T17:38:56.452Z,4.43
2019-03-24T17:41:25.337Z,5.03
2019-03-24T17:44:02.779Z,4.37
2019-03-24T17:46:24.860Z,4.03
2019-03-24T17:48:53.687Z,2.97
2019-03-24T17:51:22.763Z,3.63
2019-03-24T17:53:51.796Z,4.03
2019-03-24T17:56:21.285Z,5.13
2019-03-24T17:58:50.164Z,6.30
2019-03-24T18:01:19.026Z,6.30
2019-03-24T18:03:47.852Z,5.47
2019-03-24T18:06:16.676Z,4.00
2019-03-24T18:08:46.461Z,5.70
2019-03-24T18:11:15.466Z,8.23
2019-03-24T18:13:44.366Z,8.47
2019-03-24T18:16:13.197Z,7.40
2019-03-24T18:18:43.544Z,10.50
2019-03-24T18:21:12.379Z,5.80
2019-03-24T18:23:41.300Z,6.17
2019-03-24T18:26:10.156Z,8.37
2019-03-24T18:28:39.069Z,5.80
2019-03-24T18:31:07.915Z,5.10
2019-03-24T18:33:36.789Z,7.10
2019-03-24T18:36:05.941Z,8.93
2019-03-24T18:38:34.740Z,9.50
2019-03-24T18:41:03.555Z,6.80
2019-03-24T18:43:32.396Z,11.30
2019-03-24T18:46:01.205Z,6.70
2019-03-24T18:48:30.031Z,9.17
2019-03-24T18:50:58.908Z,7.90
2019-03-24T18:53:27.750Z,11.60
2019-03-24T18:55:56.573Z,6.67
2019-03-24T18:58:25.468Z,8.17
2019-03-24T19:00:54.282Z,9.60
2019-03-24T19:03:23.127Z,7.20
2019-03-24T19:05:52.000Z,10.57
2019-03-24T19:08:20.819Z,5.70
2019-03-24T19:10:49.652Z,6.73
2019-03-24T19:13:18.556Z,3.93
2019-03-24T19:15:47.375Z,4.57
2019-03-24T19:18:17.714Z,6.07
2019-03-24T19:20:46.612Z,4.57
2019-03-24T19:23:15.444Z,4.83
2019-03-24T19:25:44.217Z,6.83
2019-03-24T19:28:13.115Z,7.70
2019-03-24T19:30:42.973Z,6.97
2019-03-24T19:33:11.788Z,7.43
2019-03-24T19:35:40.669Z,4.30
2019-03-24T19:38:09.525Z,5.37
2019-03-24T19:40:38.364Z,7.70
2019-03-24T19:43:07.228Z,7.67
2019-03-24T19:45:36.021Z,8.37
2019-03-24T19:48:05.066Z,2.53
2019-03-24T19:50:33.958Z,8.27
2019-03-24T19:53:02.828Z,5.43
2019-03-24T19:55:31.709Z,6.80
2019-03-24T19:58:00.579Z,7.63
2019-03-24T20:00:29.414Z,4.27
2019-03-24T20:02:58.269Z,5.67
2019-03-24T20:05:27.155Z,5.77
2019-03-24T20:07:55.978Z,6.43
2019-03-24T20:10:24.812Z,5.37
2019-03-24T20:12:53.717Z,3.53
2019-03-24T20:15:22.540Z,6.67
2019-03-24T20:17:51.486Z,6.73
2019-03-24T20:20:20.405Z,5.23
2019-03-24T20:22:56.548Z,4.37
2019-03-24T20:25:20.731Z,6.13
2019-03-24T20:27:49.604Z,4.47
2019-03-24T20:30:19.749Z,4.07
2019-03-24T20:32:48.604Z,7.93
2019-03-24T20:35:17.458Z,5.67
2019-03-24T20:37:46.236Z,7.23
2019-03-24T20:40:15.380Z,6.10
2019-03-24T20:42:44.206Z,9.90
2019-03-24T20:45:13.044Z,6.50
2019-03-24T20:47:41.795Z,4.43
2019-03-24T20:50:11.061Z,8.87
2019-03-24T20:52:39.892Z,6.07
2019-03-24T20:55:09.210Z,3.47
2019-03-24T20:57:38.076Z,4.30
2019-03-24T21:00:12.004Z,3.70
2019-03-24T21:02:40.758Z,12.20
2019-03-24T21:05:11.026Z,8.13
2019-03-24T21:07:40.118Z,9.33
2019-03-24T21:10:08.932Z,3.30
2019-03-24T21:12:37.764Z,5.93
2019-03-24T21:15:07.927Z,7.53
2019-03-24T21:17:36.774Z,4.43
2019-03-24T21:20:07.774Z,4.37
2019-03-24T21:22:36.588Z,5.63
2019-03-24T21:25:07.218Z,6.20
2019-03-24T21:27:36.108Z,3.50
2019-03-24T21:30:07.844Z,4.60
2019-03-24T21:32:36.676Z,9.60
2019-03-24T21:35:06.778Z,5.80
2019-03-24T21:37:35.532Z,7.77
2019-03-24T21:40:06.389Z,14.27
2019-03-24T21:42:35.364Z,5.03
2019-03-24T21:45:07.965Z,7.23
2019-03-24T21:47:36.784Z,7.97
2019-03-24T21:50:09.277Z,7.00
2019-03-24T21:52:38.011Z,8.57
2019-03-24T21:55:06.886Z,5.97
2019-03-24T21:57:35.771Z,5.03
2019-03-24T22:00:07.355Z,4.33
2019-03-24T22:02:36.162Z,4.50
2019-03-24T22:05:05.934Z,5.27
2019-03-24T22:07:34.804Z,7.90
2019-03-24T22:10:05.829Z,4.17
2019-03-24T22:12:34.767Z,6.00
2019-03-24T22:15:03.732Z,6.50
2019-03-24T22:17:32.500Z,7.43
2019-03-24T22:20:01.340Z,6.87
2019-03-24T22:22:30.170Z,4.63
2019-03-24T22:24:58.990Z,4.47
2019-03-24T22:27:27.869Z,6.73
2019-03-24T22:29:56.676Z,9.67
2019-03-24T22:32:25.515Z,9.03
2019-03-24T22:34:54.339Z,4.43
2019-03-24T22:37:23.076Z,8.07
2019-03-24T22:39:51.812Z,3.77
2019-03-24T22:42:20.595Z,4.70
2019-03-24T22:44:49.396Z,5.80
2019-03-24T22:47:19.060Z,6.67
2019-03-24T22:49:47.907Z,7.83
2019-03-24T22:52:16.738Z,7.70
2019-03-24T22:54:45.492Z,6.50
2019-03-24T22:57:15.820Z,3.27
2019-03-24T22:59:44.630Z,5.73
2019-03-24T23:02:13.443Z,10.70
2019-03-24T23:04:42.299Z,8.73
2019-03-24T23:07:11.116Z,6.43
2019-03-24T23:09:39.924Z,9.20
2019-03-24T23:12:08.707Z,8.30
2019-03-24T23:14:37.514Z,4.90
2019-03-24T23:17:06.343Z,6.73
2019-03-24T23:19:35.176Z,8.60
2019-03-24T23:22:03.911Z,4.07
2019-03-24T23:24:32.730Z,9.77
2019-03-24T23:27:01.515Z,7.33
2019-03-24T23:29:30.365Z,5.13
2019-03-24T23:31:59.163Z,10.43
2019-03-24T23:34:27.932Z,10.43
2019-03-24T23:36:56.772Z,11.97
2019-03-24T23:39:25.484Z,7.87
2019-03-24T23:41:54.284Z,11.77
2019-03-24T23:44:23.090Z,13.97
2019-03-24T23:46:51.924Z,10.43
2019-03-24T23:49:20.763Z,8.33
2019-03-24T23:51:49.524Z,8.13
2019-03-24T23:54:26.553Z,9.30
2019-03-24T23:56:48.901Z,9.93
2019-03-24T23:59:17.646Z,5.77
